Time;durP1;ratioP1;P1;durP2;ratioP2;P2;SDS_P1;SDS_P2;PMS_P1;PMS_P2;Temp;Humidity;BMP_temperature;BMP_pressure;BME280_temperature;BME280_humidity;BME280_pressure;Samples;Min_cycle;Max_cycle;Signal;HPM_P1;HPM_P2
2021/10/06 00:01:09;;;;;;;8.98;4.22;;;;;;;;;;5015092;28;20050;-64
2021/10/06 00:03:54;;;;;;;10.32;4.18;;;;;;;;;;5015068;28;20054;-66
2021/10/06 00:06:39;;;;;;;8.73;4.20;;;;;;;;;;5014998;28;20559;-65
2021/10/06 00:09:25;;;;;;;11.02;3.95;;;;;;;;;;5015144;28;20058;-65
2021/10/06 00:12:10;;;;;;;9.70;3.83;;;;;;;;;;5014808;28;20058;-66
2021/10/06 00:14:55;;;;;;;10.57;4.20;;;;;;;;;;5014510;28;20053;-66
2021/10/06 00:17:41;;;;;;;6.03;3.85;;;;;;;;;;5014940;28;20050;-65
2021/10/06 00:20:26;;;;;;;15.00;4.95;;;;;;;;;;5015026;28;20050;-66
2021/10/06 00:23:11;;;;;;;7.15;3.30;;;;;;;;;;5014879;28;20054;-65
2021/10/06 00:25:56;;;;;;;6.80;3.45;;;;;;;;;;5014803;28;20058;-65
2021/10/06 00:28:42;;;;;;;8.00;3.63;;;;;;;;;;5014780;28;20049;-65
2021/10/06 00:31:27;;;;;;;7.90;3.28;;;;;;;;;;5014634;28;20500;-64
2021/10/06 00:34:13;;;;;;;5.45;2.85;;;;;;;;;;5014204;28;20504;-65
2021/10/06 00:36:59;;;;;;;7.03;2.85;;;;;;;;;;5014472;28;20049;-65
2021/10/06 00:39:44;;;;;;;5.03;2.83;;;;;;;;;;4996826;28;20081;-65
2021/10/06 00:42:29;;;;;;;7.80;2.70;;;;;;;;;;5014390;28;20054;-65
2021/10/06 00:45:14;;;;;;;4.18;2.53;;;;;;;;;;5014016;28;20053;-65
2021/10/06 00:48:00;;;;;;;4.07;2.55;;;;;;;;;;5014474;28;20057;-64
2021/10/06 00:50:45;;;;;;;5.40;2.47;;;;;;;;;;5014103;28;20050;-65
2021/10/06 00:53:30;;;;;;;6.07;2.28;;;;;;;;;;5013846;28;20495;-65
2021/10/06 00:56:16;;;;;;;7.65;2.20;;;;;;;;;;5014356;28;20058;-64
2021/10/06 00:59:01;;;;;;;7.05;2.90;;;;;;;;;;5014217;28;20054;-65
2021/10/06 01:01:46;;;;;;;7.45;2.72;;;;;;;;;;5014015;28;20058;-65
2021/10/06 01:04:32;;;;;;;3.92;2.17;;;;;;;;;;5013827;28;20068;-64
2021/10/06 01:07:18;;;;;;;4.40;2.47;;;;;;;;;;5014077;28;20129;-65
2021/10/06 01:10:04;;;;;;;4.38;2.78;;;;;;;;;;5013924;28;20128;-65
2021/10/06 01:12:49;;;;;;;10.68;3.45;;;;;;;;;;5013937;28;20049;-65
2021/10/06 01:15:35;;;;;;;5.50;2.35;;;;;;;;;;5013520;28;20049;-66
2021/10/06 01:18:20;;;;;;;4.90;2.70;;;;;;;;;;5013969;28;20050;-64
2021/10/06 01:21:12;;;;;;;5.97;2.33;;;;;;;;;;5013558;28;20502;-66
2021/10/06 01:23:57;;;;;;;9.73;3.00;;;;;;;;;;5013596;28;20057;-66
2021/10/06 01:26:43;;;;;;;4.88;2.70;;;;;;;;;;5013616;28;20057;-65
2021/10/06 01:29:28;;;;;;;5.85;2.90;;;;;;;;;;5013484;28;20691;-65
2021/10/06 01:32:14;;;;;;;4.38;2.45;;;;;;;;;;5013388;28;20424;-65
2021/10/06 01:34:59;;;;;;;5.85;2.38;;;;;;;;;;5013074;28;20050;-65
2021/10/06 01:37:45;;;;;;;6.80;2.92;;;;;;;;;;5013305;28;20120;-65
2021/10/06 01:40:30;;;;;;;3.95;2.45;;;;;;;;;;5013278;28;20504;-65
2021/10/06 01:43:15;;;;;;;7.40;2.47;;;;;;;;;;5013356;28;20058;-66
2021/10/06 01:46:01;;;;;;;5.55;2.65;;;;;;;;;;5013153;28;20058;-64
2021/10/06 01:48:46;;;;;;;5.75;3.35;;;;;;;;;;5013291;28;20050;-64
2021/10/06 01:51:32;;;;;;;5.72;2.83;;;;;;;;;;5013157;28;20053;-66
2021/10/06 01:54:17;;;;;;;4.35;2.83;;;;;;;;;;5012688;28;20061;-65
2021/10/06 01:57:03;;;;;;;6.78;3.28;;;;;;;;;;5013059;28;20053;-66
2021/10/06 01:59:48;;;;;;;5.45;2.95;;;;;;;;;;4998262;28;20133;-65
2021/10/06 02:02:33;;;;;;;6.90;3.08;;;;;;;;;;5012828;28;20081;-64
2021/10/06 02:05:18;;;;;;;5.28;2.90;;;;;;;;;;4994955;28;20501;-65
2021/10/06 02:08:04;;;;;;;9.55;4.00;;;;;;;;;;5012941;28;20065;-64
2021/10/06 02:10:49;;;;;;;8.30;3.60;;;;;;;;;;5012783;28;20050;-66
2021/10/06 02:13:34;;;;;;;7.40;3.53;;;;;;;;;;5012430;28;20504;-65
2021/10/06 02:16:20;;;;;;;6.53;3.55;;;;;;;;;;5012922;28;20050;-65
2021/10/06 02:19:05;;;;;;;7.28;3.92;;;;;;;;;;5012931;28;20050;-65
2021/10/06 02:21:50;;;;;;;9.68;3.80;;;;;;;;;;5012690;28;20382;-65
2021/10/06 02:24:35;;;;;;;8.65;4.72;;;;;;;;;;5012453;28;20128;-64
2021/10/06 02:27:21;;;;;;;8.32;4.40;;;;;;;;;;5012564;28;20081;-65
2021/10/06 02:30:06;;;;;;;12.52;5.80;;;;;;;;;;5012685;28;20045;-64
2021/10/06 02:32:52;;;;;;;11.32;5.35;;;;;;;;;;5012038;28;20528;-64
2021/10/06 02:35:37;;;;;;;8.18;5.25;;;;;;;;;;5012215;28;20463;-64
2021/10/06 02:38:22;;;;;;;9.60;6.60;;;;;;;;;;5012617;28;20128;-64
2021/10/06 02:41:08;;;;;;;11.65;6.97;;;;;;;;;;5011960;28;20432;-64
2021/10/06 02:43:53;;;;;;;7.70;5.72;;;;;;;;;;5011933;28;20049;-64
2021/10/06 02:46:38;;;;;;;12.82;7.03;;;;;;;;;;5011061;28;20050;-64
2021/10/06 02:49:24;;;;;;;8.35;6.20;;;;;;;;;;5021119;28;20113;-64
2021/10/06 02:52:09;;;;;;;11.98;6.85;;;;;;;;;;5021350;28;20500;-64
2021/10/06 02:54:55;;;;;;;9.85;6.35;;;;;;;;;;5022072;28;20439;-64
2021/10/06 02:57:40;;;;;;;10.70;6.50;;;;;;;;;;5022834;28;20045;-64
2021/10/06 03:00:25;;;;;;;12.13;7.40;;;;;;;;;;5021149;28;20117;-64
2021/10/06 03:03:11;;;;;;;10.25;6.90;;;;;;;;;;5021527;28;20143;-64
2021/10/06 03:05:56;;;;;;;11.35;6.20;;;;;;;;;;5022548;28;20046;-64
2021/10/06 03:08:41;;;;;;;9.02;5.30;;;;;;;;;;5023388;28;20046;-64
2021/10/06 03:11:27;;;;;;;10.32;6.38;;;;;;;;;;5024819;28;20042;-64
2021/10/06 03:14:12;;;;;;;9.38;6.00;;;;;;;;;;5025534;28;20054;-64
2021/10/06 03:16:57;;;;;;;12.07;5.88;;;;;;;;;;5025629;28;20054;-64
2021/10/06 03:19:43;;;;;;;9.13;6.22;;;;;;;;;;5022637;28;20050;-64
2021/10/06 03:22:28;;;;;;;9.43;6.25;;;;;;;;;;5026387;28;20124;-64
2021/10/06 03:25:14;;;;;;;9.98;6.32;;;;;;;;;;5024244;28;20050;-64
2021/10/06 03:27:59;;;;;;;13.25;6.72;;;;;;;;;;5024465;28;20054;-63
2021/10/06 03:30:44;;;;;;;10.10;5.90;;;;;;;;;;5023538;28;20053;-64
2021/10/06 03:33:30;;;;;;;9.88;6.85;;;;;;;;;;5111039;22;20044;-65
2021/10/06 03:36:15;;;;;;;7.70;5.43;;;;;;;;;;5075271;28;20045;-65
2021/10/06 03:39:00;;;;;;;10.98;6.10;;;;;;;;;;5074997;28;20494;-65
2021/10/06 03:41:46;;;;;;;13.13;5.30;;;;;;;;;;5071329;28;20107;-65
2021/10/06 03:44:31;;;;;;;8.82;4.47;;;;;;;;;;5054849;28;20574;-65
2021/10/06 03:47:16;;;;;;;10.70;4.47;;;;;;;;;;5054151;28;20422;-62
2021/10/06 03:50:01;;;;;;;8.43;5.30;;;;;;;;;;5054801;28;20507;-62
2021/10/06 03:52:47;;;;;;;12.15;4.30;;;;;;;;;;5055031;28;20061;-62
2021/10/06 03:55:32;;;;;;;9.75;4.53;;;;;;;;;;5054698;28;20056;-61
2021/10/06 03:58:17;;;;;;;6.43;3.00;;;;;;;;;;5055125;28;20049;-62
2021/10/06 04:01:03;;;;;;;7.25;3.03;;;;;;;;;;5054927;28;20057;-62
2021/10/06 04:03:48;;;;;;;9.90;3.75;;;;;;;;;;5054818;28;20052;-61
2021/10/06 04:06:34;;;;;;;7.82;3.30;;;;;;;;;;5054627;28;20525;-62
2021/10/06 04:09:19;;;;;;;5.20;3.28;;;;;;;;;;5054808;28;20127;-62
2021/10/06 04:12:04;;;;;;;7.20;2.72;;;;;;;;;;5054814;28;20124;-62
2021/10/06 04:14:50;;;;;;;8.18;3.25;;;;;;;;;;5054517;28;20071;-62
2021/10/06 04:17:35;;;;;;;7.45;2.55;;;;;;;;;;5054283;28;20049;-62
2021/10/06 04:20:20;;;;;;;9.43;2.85;;;;;;;;;;5054772;28;20053;-62
2021/10/06 04:23:06;;;;;;;5.13;2.47;;;;;;;;;;5054549;28;20057;-61
2021/10/06 04:25:51;;;;;;;8.73;2.53;;;;;;;;;;5054434;28;20057;-61
2021/10/06 04:28:37;;;;;;;4.90;2.50;;;;;;;;;;5054065;28;20053;-62
2021/10/06 04:31:22;;;;;;;9.13;3.05;;;;;;;;;;5054376;28;20057;-61
2021/10/06 04:34:07;;;;;;;5.13;2.80;;;;;;;;;;5053035;28;20049;-62
2021/10/06 04:36:52;;;;;;;8.80;3.83;;;;;;;;;;5053943;28;20449;-62
2021/10/06 04:39:39;;;;;;;9.77;4.13;;;;;;;;;;5054210;28;20084;-61
2021/10/06 04:42:25;;;;;;;5.13;4.22;;;;;;;;;;5054019;28;20048;-62
2021/10/06 04:45:10;;;;;;;8.50;4.50;;;;;;;;;;5053669;28;20120;-61
2021/10/06 04:47:55;;;;;;;7.97;4.90;;;;;;;;;;5053952;28;20052;-62
2021/10/06 04:50:41;;;;;;;8.90;5.43;;;;;;;;;;5054436;28;20088;-61
2021/10/06 04:53:26;;;;;;;10.15;5.80;;;;;;;;;;5053600;28;20057;-62
2021/10/06 04:56:12;;;;;;;7.45;4.78;;;;;;;;;;5054027;28;20057;-62
2021/10/06 04:58:57;;;;;;;6.57;5.15;;;;;;;;;;5053714;28;20053;-62
2021/10/06 05:01:42;;;;;;;11.05;7.22;;;;;;;;;;5053634;28;20053;-62
2021/10/06 05:04:28;;;;;;;8.77;6.13;;;;;;;;;;5053653;28;20053;-61
2021/10/06 05:07:14;;;;;;;7.60;6.15;;;;;;;;;;5053730;28;20577;-62
2021/10/06 05:09:59;;;;;;;8.52;6.13;;;;;;;;;;5053789;28;20049;-62
2021/10/06 05:12:44;;;;;;;8.10;6.30;;;;;;;;;;5053687;28;20049;-62
2021/10/06 05:15:30;;;;;;;7.28;5.40;;;;;;;;;;5052987;28;20076;-62
2021/10/06 05:18:15;;;;;;;11.23;6.03;;;;;;;;;;5053508;28;20442;-62
2021/10/06 05:21:00;;;;;;;6.70;5.85;;;;;;;;;;5053268;28;20049;-62
2021/10/06 05:23:45;;;;;;;9.35;5.57;;;;;;;;;;5053195;28;20045;-63
2021/10/06 05:26:30;;;;;;;10.63;4.80;;;;;;;;;;5053196;28;20053;-61
2021/10/06 05:29:16;;;;;;;6.95;4.97;;;;;;;;;;5053416;28;20049;-61
2021/10/06 05:32:04;;;;;;;8.45;5.00;;;;;;;;;;5053069;28;20045;-60
2021/10/06 05:34:49;;;;;;;9.23;4.90;;;;;;;;;;5052843;28;20084;-61
2021/10/06 05:37:34;;;;;;;7.53;5.20;;;;;;;;;;5053063;28;20418;-61
2021/10/06 05:40:20;;;;;;;9.80;6.28;;;;;;;;;;5053140;28;20128;-63
2021/10/06 05:43:05;;;;;;;15.82;6.03;;;;;;;;;;5052905;28;20518;-61
2021/10/06 05:45:50;;;;;;;8.30;5.47;;;;;;;;;;5053016;28;20128;-61
2021/10/06 05:48:35;;;;;;;6.57;5.18;;;;;;;;;;5044620;28;20064;-60
2021/10/06 05:51:21;;;;;;;8.07;5.38;;;;;;;;;;5052805;28;20057;-61
2021/10/06 05:54:06;;;;;;;7.88;5.97;;;;;;;;;;5052379;28;20510;-62
2021/10/06 05:56:51;;;;;;;6.18;4.90;;;;;;;;;;5052721;28;20431;-61
2021/10/06 05:59:37;;;;;;;6.97;6.38;;;;;;;;;;5052685;28;20060;-62
2021/10/06 06:02:23;;;;;;;7.53;6.22;;;;;;;;;;5053895;28;20049;-61
2021/10/06 06:05:09;;;;;;;10.70;6.28;;;;;;;;;;5076383;28;20088;-63
2021/10/06 06:07:55;;;;;;;8.15;5.93;;;;;;;;;;5076312;28;20049;-62
2021/10/06 06:10:40;;;;;;;8.45;6.40;;;;;;;;;;5075527;28;20064;-61
2021/10/06 06:13:25;;;;;;;6.40;5.70;;;;;;;;;;5075720;28;20036;-62
2021/10/06 06:16:11;;;;;;;6.72;6.13;;;;;;;;;;5075812;28;20100;-61
2021/10/06 06:18:56;;;;;;;9.27;5.57;;;;;;;;;;5075541;28;20048;-62
2021/10/06 06:21:42;;;;;;;9.75;5.88;;;;;;;;;;5074038;28;20044;-60
2021/10/06 06:24:29;;;;;;;7.50;5.50;;;;;;;;;;5069141;28;20091;-63
2021/10/06 06:27:14;;;;;;;8.38;5.43;;;;;;;;;;5052102;28;20056;-62
2021/10/06 06:29:59;;;;;;;8.13;5.82;;;;;;;;;;5050919;28;20052;-62
2021/10/06 06:32:44;;;;;;;9.20;5.57;;;;;;;;;;5052045;28;20052;-64
2021/10/06 06:35:30;;;;;;;6.05;5.40;;;;;;;;;;5051687;28;20045;-61
2021/10/06 06:38:16;;;;;;;7.07;6.30;;;;;;;;;;5032426;28;20403;-61
2021/10/06 06:41:01;;;;;;;8.50;5.88;;;;;;;;;;5046437;28;20053;-64
2021/10/06 06:43:46;;;;;;;6.30;5.30;;;;;;;;;;5051655;28;20067;-61
2021/10/06 06:46:31;;;;;;;7.28;4.75;;;;;;;;;;5051781;28;20049;-61
2021/10/06 06:49:17;;;;;;;6.28;4.85;;;;;;;;;;5052028;28;20057;-61
2021/10/06 06:52:03;;;;;;;7.68;4.70;;;;;;;;;;5051842;28;20415;-61
2021/10/06 06:54:49;;;;;;;4.85;4.30;;;;;;;;;;5051759;28;20050;-60
2021/10/06 06:57:34;;;;;;;6.45;4.60;;;;;;;;;;5051694;28;20095;-61
2021/10/06 07:00:19;;;;;;;5.15;4.03;;;;;;;;;;5051827;28;20124;-62
2021/10/06 07:03:05;;;;;;;6.43;3.90;;;;;;;;;;5051942;28;20053;-61
2021/10/06 07:05:50;;;;;;;5.60;4.45;;;;;;;;;;5051880;28;20131;-61
2021/10/06 07:08:35;;;;;;;5.30;4.00;;;;;;;;;;5051555;28;20053;-64
2021/10/06 07:11:21;;;;;;;5.10;4.20;;;;;;;;;;5051839;28;20052;-61
2021/10/06 07:14:07;;;;;;;4.75;3.72;;;;;;;;;;5051456;28;20048;-60
2021/10/06 07:16:52;;;;;;;7.10;4.93;;;;;;;;;;5051750;28;20049;-60
2021/10/06 07:19:37;;;;;;;6.38;4.78;;;;;;;;;;5051594;28;20045;-60
2021/10/06 07:22:23;;;;;;;6.57;4.43;;;;;;;;;;5051584;28;20558;-62
2021/10/06 07:25:08;;;;;;;5.88;4.03;;;;;;;;;;5051835;28;20053;-62
2021/10/06 07:27:53;;;;;;;5.05;4.28;;;;;;;;;;5051602;28;20342;-62
2021/10/06 07:30:39;;;;;;;5.18;4.68;;;;;;;;;;5051703;28;20053;-62
2021/10/06 07:33:24;;;;;;;4.55;4.15;;;;;;;;;;5051163;28;20061;-62
2021/10/06 07:36:10;;;;;;;6.40;4.57;;;;;;;;;;5051342;28;20057;-62
2021/10/06 07:38:55;;;;;;;5.10;4.60;;;;;;;;;;5051413;28;20048;-62
2021/10/06 07:41:41;;;;;;;4.88;4.30;;;;;;;;;;5051404;28;20053;-62
2021/10/06 07:44:26;;;;;;;5.18;4.20;;;;;;;;;;5050999;28;20538;-63
2021/10/06 07:47:11;;;;;;;6.95;5.25;;;;;;;;;;5051582;28;20049;-62
2021/10/06 07:49:59;;;;;;;5.93;5.05;;;;;;;;;;5051192;28;20111;-62
2021/10/06 07:52:44;;;;;;;7.60;5.78;;;;;;;;;;5051174;28;20057;-63
2021/10/06 07:55:29;;;;;;;8.90;5.72;;;;;;;;;;5054821;28;20119;-62
2021/10/06 07:58:15;;;;;;;8.75;6.80;;;;;;;;;;5055079;28;20048;-62
2021/10/06 08:01:00;;;;;;;10.57;6.82;;;;;;;;;;5054804;28;20049;-62
2021/10/06 08:03:45;;;;;;;10.43;7.25;;;;;;;;;;5054809;28;20053;-63
2021/10/06 08:06:31;;;;;;;10.55;6.57;;;;;;;;;;5054898;28;20052;-63
2021/10/06 08:09:16;;;;;;;8.10;6.40;;;;;;;;;;5054464;28;20099;-62
2021/10/06 08:12:01;;;;;;;7.90;6.53;;;;;;;;;;5054769;28;20478;-62
2021/10/06 08:14:47;;;;;;;7.72;6.45;;;;;;;;;;5054280;28;20526;-62
2021/10/06 08:17:32;;;;;;;8.88;6.82;;;;;;;;;;5054545;28;20128;-62
2021/10/06 08:20:17;;;;;;;6.72;6.10;;;;;;;;;;5054671;28;20045;-63
2021/10/06 08:23:03;;;;;;;8.38;5.63;;;;;;;;;;5054571;28;20045;-63
2021/10/06 08:25:49;;;;;;;6.68;6.00;;;;;;;;;;5054258;28;20052;-63
2021/10/06 08:28:34;;;;;;;7.22;5.78;;;;;;;;;;5054361;28;20060;-63
2021/10/06 08:31:20;;;;;;;8.52;5.80;;;;;;;;;;5054032;28;20124;-63
2021/10/06 08:34:05;;;;;;;8.73;6.50;;;;;;;;;;5054094;28;20135;-63
2021/10/06 08:36:52;;;;;;;6.32;5.72;;;;;;;;;;5054469;28;20056;-63
2021/10/06 08:39:37;;;;;;;7.35;6.18;;;;;;;;;;5054226;28;20099;-63
2021/10/06 08:42:23;;;;;;;8.45;5.47;;;;;;;;;;5053842;28;20136;-63
2021/10/06 08:45:08;;;;;;;7.95;5.47;;;;;;;;;;5053803;28;20441;-63
2021/10/06 08:47:54;;;;;;;6.88;5.68;;;;;;;;;;5054152;28;20056;-63
2021/10/06 08:50:39;;;;;;;7.97;5.38;;;;;;;;;;5052816;28;20119;-63
2021/10/06 08:53:24;;;;;;;7.75;4.72;;;;;;;;;;5054010;28;20068;-63
2021/10/06 08:56:10;;;;;;;10.30;6.13;;;;;;;;;;5053837;28;20131;-63
2021/10/06 08:58:55;;;;;;;9.77;6.32;;;;;;;;;;5053810;28;20503;-63
2021/10/06 09:01:44;;;;;;;7.93;5.60;;;;;;;;;;5053991;28;20483;-63
2021/10/06 09:04:32;;;;;;;8.30;5.13;;;;;;;;;;5052588;28;20503;-63
2021/10/06 09:07:17;;;;;;;7.18;5.00;;;;;;;;;;5053767;28;20468;-63
2021/10/06 09:10:15;;;;;;;6.35;4.43;;;;;;;;;;5053805;28;20057;-63
2021/10/06 09:13:01;;;;;;;6.00;4.63;;;;;;;;;;5063312;28;20045;-64
2021/10/06 09:15:49;;;;;;;4.75;4.00;;;;;;;;;;5067593;28;20056;-65
2021/10/06 09:18:34;;;;;;;6.15;4.60;;;;;;;;;;5053169;28;20132;-63
2021/10/06 09:21:20;;;;;;;8.43;5.20;;;;;;;;;;5067329;28;20045;-63
2021/10/06 09:24:08;;;;;;;6.97;4.63;;;;;;;;;;5052098;28;20056;-62
2021/10/06 09:27:06;;;;;;;8.40;4.55;;;;;;;;;;5054460;28;20056;-64
2021/10/06 09:29:52;;;;;;;4.95;4.45;;;;;;;;;;5068731;28;20095;-64
2021/10/06 09:32:38;;;;;;;6.78;4.40;;;;;;;;;;5079325;22;20139;-62
2021/10/06 09:35:23;;;;;;;6.50;4.65;;;;;;;;;;5072989;28;20131;-62
2021/10/06 09:38:09;;;;;;;7.10;3.67;;;;;;;;;;5073061;28;20052;-62
2021/10/06 09:40:54;;;;;;;5.55;3.88;;;;;;;;;;5072906;28;20119;-62
2021/10/06 09:43:39;;;;;;;5.72;3.97;;;;;;;;;;5060735;28;20053;-62
2021/10/06 09:46:24;;;;;;;6.55;3.53;;;;;;;;;;5038102;28;20057;-62
2021/10/06 09:49:25;;;;;;;5.88;4.07;;;;;;;;;;5052878;28;20412;-62
2021/10/06 09:52:14;;;;;;;6.32;3.63;;;;;;;;;;5052886;28;20056;-61
2021/10/06 09:55:08;;;;;;;7.07;3.95;;;;;;;;;;5072052;28;20049;-61
2021/10/06 09:57:54;;;;;;;7.00;3.78;;;;;;;;;;5072910;28;20052;-62
2021/10/06 10:00:41;;;;;;;6.45;3.25;;;;;;;;;;5072810;28;20048;-62
2021/10/06 10:03:26;;;;;;;3.80;2.58;;;;;;;;;;5068040;28;20112;-62
2021/10/06 10:06:11;;;;;;;5.55;2.72;;;;;;;;;;5052488;28;20107;-62
2021/10/06 10:08:56;;;;;;;4.60;2.60;;;;;;;;;;5037574;28;20052;-62
2021/10/06 10:11:42;;;;;;;5.90;2.60;;;;;;;;;;5052496;28;20057;-62
2021/10/06 10:14:27;;;;;;;3.38;2.60;;;;;;;;;;5061520;28;20057;-63
2021/10/06 10:17:12;;;;;;;4.28;2.80;;;;;;;;;;5057195;28;20044;-61
2021/10/06 10:19:58;;;;;;;3.55;2.47;;;;;;;;;;5072392;28;20052;-64
2021/10/06 10:22:45;;;;;;;2.85;2.65;;;;;;;;;;5072113;28;20052;-61
2021/10/06 10:25:30;;;;;;;5.15;2.33;;;;;;;;;;5056504;28;20052;-63
2021/10/06 10:28:16;;;;;;;5.78;2.75;;;;;;;;;;5052270;28;20045;-63
2021/10/06 10:31:02;;;;;;;3.78;2.20;;;;;;;;;;5052983;28;20049;-64
2021/10/06 10:33:55;;;;;;;2.95;1.60;;;;;;;;;;5055322;28;20115;-64
2021/10/06 10:36:40;;;;;;;1.88;1.63;;;;;;;;;;5054921;28;20049;-64
2021/10/06 10:39:42;;;;;;;3.33;1.77;;;;;;;;;;5055564;28;20049;-64
2021/10/06 10:42:44;;;;;;;2.83;1.88;;;;;;;;;;5054684;28;20414;-64
2021/10/06 10:45:41;;;;;;;2.20;2.00;;;;;;;;;;5045270;28;20049;-64
2021/10/06 10:48:32;;;;;;;3.83;2.17;;;;;;;;;;5055073;28;20049;-64
2021/10/06 10:51:17;;;;;;;4.78;2.28;;;;;;;;;;5055166;28;20053;-64
2021/10/06 10:54:03;;;;;;;3.97;2.20;;;;;;;;;;5054773;28;20422;-64
2021/10/06 10:56:52;;;;;;;3.53;1.90;;;;;;;;;;5066235;28;20434;-64
2021/10/06 10:59:43;;;;;;;2.50;1.67;;;;;;;;;;5075091;28;20048;-64
2021/10/06 11:02:30;;;;;;;1.88;1.45;;;;;;;;;;5073914;28;20124;-64
2021/10/06 11:05:16;;;;;;;3.17;2.00;;;;;;;;;;5075784;28;20080;-64
2021/10/06 11:08:01;;;;;;;3.17;2.30;;;;;;;;;;5056232;28;20123;-64
2021/10/06 11:10:46;;;;;;;3.25;1.40;;;;;;;;;;5021725;28;20124;-64
2021/10/06 11:13:35;;;;;;;2.53;1.40;;;;;;;;;;5022895;28;20493;-64
2021/10/06 11:16:21;;;;;;;2.65;1.40;;;;;;;;;;5042969;28;20049;-64
2021/10/06 11:19:07;;;;;;;1.55;0.80;;;;;;;;;;5063791;28;20052;-63
2021/10/06 11:21:52;;;;;;;2.03;1.00;;;;;;;;;;5063776;28;20045;-64
2021/10/06 11:24:38;;;;;;;3.33;1.27;;;;;;;;;;5061738;28;20056;-63
2021/10/06 11:27:23;;;;;;;4.43;1.00;;;;;;;;;;5069182;28;20057;-64
2021/10/06 11:30:10;;;;;;;3.42;0.80;;;;;;;;;;5062724;28;20061;-64
2021/10/06 11:32:56;;;;;;;2.65;0.70;;;;;;;;;;5061536;28;20061;-64
2021/10/06 11:35:41;;;;;;;1.98;1.00;;;;;;;;;;5061132;28;20388;-63
2021/10/06 11:38:27;;;;;;;2.78;0.80;;;;;;;;;;5072287;28;20052;-62
2021/10/06 11:41:12;;;;;;;2.20;0.93;;;;;;;;;;5073623;28;20049;-61
2021/10/06 11:43:57;;;;;;;3.50;0.98;;;;;;;;;;5074798;28;20044;-63
2021/10/06 11:46:43;;;;;;;2.53;0.57;;;;;;;;;;5075342;28;20056;-61
2021/10/06 11:49:32;;;;;;;1.50;0.77;;;;;;;;;;5056094;28;20061;-62
2021/10/06 11:52:18;;;;;;;2.75;0.52;;;;;;;;;;5054863;28;20088;-62
2021/10/06 11:55:03;;;;;;;2.13;0.90;;;;;;;;;;5054926;28;20053;-62
2021/10/06 11:57:48;;;;;;;2.50;0.77;;;;;;;;;;5056283;28;20573;-62
2021/10/06 12:00:33;;;;;;;2.90;0.40;;;;;;;;;;5074866;28;20053;-62
2021/10/06 12:03:19;;;;;;;1.27;0.30;;;;;;;;;;5074960;28;20057;-62
2021/10/06 12:06:04;;;;;;;4.07;0.57;;;;;;;;;;5074839;28;20048;-62
2021/10/06 12:08:50;;;;;;;1.20;0.32;;;;;;;;;;5067338;28;20045;-62
2021/10/06 12:11:35;;;;;;;3.72;0.80;;;;;;;;;;5054876;28;20049;-62
2021/10/06 12:14:21;;;;;;;1.67;0.70;;;;;;;;;;5054523;28;20115;-62
2021/10/06 12:17:07;;;;;;;1.75;0.40;;;;;;;;;;5054501;28;20052;-64
2021/10/06 12:20:05;;;;;;;2.28;0.63;;;;;;;;;;5067443;28;20062;-62
2021/10/06 12:22:55;;;;;;;2.20;0.50;;;;;;;;;;5074558;28;20049;-63
2021/10/06 12:25:40;;;;;;;1.95;0.95;;;;;;;;;;5074161;28;20052;-62
2021/10/06 12:28:26;;;;;;;3.25;0.60;;;;;;;;;;5074596;28;20057;-62
2021/10/06 12:31:20;;;;;;;2.72;0.60;;;;;;;;;;5034562;28;20124;-62
2021/10/06 12:34:13;;;;;;;2.28;0.60;;;;;;;;;;5015689;28;20057;-66
2021/10/06 12:36:58;;;;;;;3.78;0.90;;;;;;;;;;5034151;28;20061;-66
2021/10/06 12:39:43;;;;;;;1.95;0.50;;;;;;;;;;5046287;28;20048;-66
2021/10/06 12:42:29;;;;;;;3.25;0.80;;;;;;;;;;5074260;28;20044;-67
2021/10/06 12:45:19;;;;;;;2.33;0.73;;;;;;;;;;5072325;28;20049;-66
2021/10/06 12:48:05;;;;;;;1.65;0.63;;;;;;;;;;5074221;28;20499;-68
2021/10/06 12:50:56;;;;;;;1.52;0.60;;;;;;;;;;5063766;28;20091;-66
2021/10/06 12:54:16;;;;;;;2.00;0.95;;;;;;;;;;5053658;28;20057;-66
2021/10/06 12:57:02;;;;;;;2.60;0.70;;;;;;;;;;5040943;28;20053;-66
2021/10/06 12:59:47;;;;;;;4.25;0.63;;;;;;;;;;5053896;28;20057;-66
2021/10/06 13:02:33;;;;;;;3.22;0.82;;;;;;;;;;5073620;28;20053;-66
2021/10/06 13:05:19;;;;;;;7.80;0.70;;;;;;;;;;5073399;28;20057;-66
2021/10/06 13:08:17;;;;;;;1.85;0.75;;;;;;;;;;5073981;28;20135;-66
2021/10/06 13:11:01;;;;;;;5.45;0.90;;;;;;;;;;5066147;28;20053;-66
2021/10/06 13:13:47;;;;;;;10.13;1.48;;;;;;;;;;5053481;28;20052;-66
2021/10/06 13:16:32;;;;;;;2.55;0.57;;;;;;;;;;5053482;28;20053;-66
2021/10/06 13:19:17;;;;;;;2.70;0.50;;;;;;;;;;5053478;28;20056;-68
2021/10/06 13:22:03;;;;;;;1.95;0.60;;;;;;;;;;5065477;28;20048;-67
2021/10/06 13:24:48;;;;;;;3.55;0.65;;;;;;;;;;5073185;28;20254;-68
2021/10/06 13:27:33;;;;;;;3.35;0.95;;;;;;;;;;5073197;28;20053;-66
2021/10/06 13:30:19;;;;;;;1.77;0.85;;;;;;;;;;5073188;28;20119;-67
2021/10/06 13:33:04;;;;;;;2.83;0.80;;;;;;;;;;5073080;28;20052;-67
2021/10/06 13:35:49;;;;;;;3.05;1.08;;;;;;;;;;5072978;28;20049;-67
2021/10/06 13:38:35;;;;;;;3.08;1.08;;;;;;;;;;5073067;28;20052;-67
2021/10/06 13:41:21;;;;;;;1.20;0.77;;;;;;;;;;5067397;28;20486;-67
2021/10/06 13:44:06;;;;;;;4.88;0.77;;;;;;;;;;5072660;28;20048;-67
2021/10/06 13:46:51;;;;;;;2.47;0.60;;;;;;;;;;5072878;28;20060;-67
2021/10/06 13:49:36;;;;;;;5.35;0.60;;;;;;;;;;5072927;28;20473;-67
2021/10/06 13:52:22;;;;;;;2.25;0.60;;;;;;;;;;5061456;28;20053;-68
2021/10/06 13:55:07;;;;;;;4.00;0.73;;;;;;;;;;5052395;28;20056;-67
2021/10/06 13:57:53;;;;;;;7.82;0.90;;;;;;;;;;5052536;28;20048;-67
2021/10/06 14:00:39;;;;;;;3.58;0.65;;;;;;;;;;5052522;28;20049;-67
2021/10/06 14:03:24;;;;;;;2.58;0.50;;;;;;;;;;5068122;28;20504;-68
2021/10/06 14:06:09;;;;;;;3.60;0.80;;;;;;;;;;5072649;28;20128;-68
2021/10/06 14:08:55;;;;;;;2.08;0.70;;;;;;;;;;5072250;28;20049;-67
2021/10/06 14:11:40;;;;;;;1.42;0.40;;;;;;;;;;5072161;28;20128;-67
2021/10/06 14:14:25;;;;;;;3.08;0.57;;;;;;;;;;5032346;28;20053;-66
2021/10/06 14:17:10;;;;;;;1.65;0.55;;;;;;;;;;5032249;28;20419;-67
2021/10/06 14:19:56;;;;;;;3.08;0.40;;;;;;;;;;5032359;28;20053;-67
2021/10/06 14:22:43;;;;;;;16.00;1.40;;;;;;;;;;5038599;28;20053;-67
2021/10/06 14:25:29;;;;;;;2.95;0.47;;;;;;;;;;5052056;28;20049;-66
2021/10/06 14:28:16;;;;;;;3.10;0.50;;;;;;;;;;5034540;28;20053;-67
2021/10/06 14:31:01;;;;;;;2.97;0.68;;;;;;;;;;5052339;28;20119;-67
2021/10/06 14:33:46;;;;;;;3.90;0.73;;;;;;;;;;5062444;28;20048;-66
2021/10/06 14:36:35;;;;;;;2.83;0.43;;;;;;;;;;5072006;28;20123;-66
2021/10/06 14:39:21;;;;;;;1.52;0.30;;;;;;;;;;5072286;28;20060;-66
2021/10/06 14:42:06;;;;;;;3.55;1.05;;;;;;;;;;5071837;28;20498;-66
2021/10/06 14:44:51;;;;;;;2.58;0.40;;;;;;;;;;5054350;28;20124;-67
2021/10/06 14:47:37;;;;;;;10.10;0.65;;;;;;;;;;5052076;28;20061;-66
2021/10/06 14:50:23;;;;;;;3.38;0.50;;;;;;;;;;5051830;28;20393;-66
2021/10/06 14:53:09;;;;;;;1.98;0.30;;;;;;;;;;5052066;28;20052;-66
2021/10/06 14:55:54;;;;;;;2.55;0.60;;;;;;;;;;5031922;28;20120;-66
2021/10/06 14:58:39;;;;;;;6.15;0.82;;;;;;;;;;5031893;28;20049;-67
2021/10/06 15:01:26;;;;;;;1.45;0.63;;;;;;;;;;5031805;28;20077;-67
2021/10/06 15:04:11;;;;;;;4.57;0.50;;;;;;;;;;5047832;28;20484;-66
2021/10/06 15:06:57;;;;;;;1.55;0.75;;;;;;;;;;5075879;28;20510;-66
2021/10/06 15:09:44;;;;;;;3.17;0.43;;;;;;;;;;5075889;28;20048;-66
2021/10/06 15:12:32;;;;;;;5.07;0.65;;;;;;;;;;5076049;28;20052;-67
2021/10/06 15:15:17;;;;;;;3.63;0.40;;;;;;;;;;5062949;28;20057;-66
2021/10/06 15:18:03;;;;;;;2.67;0.50;;;;;;;;;;5055686;28;20049;-66
2021/10/06 15:20:49;;;;;;;2.53;0.47;;;;;;;;;;5055585;28;20049;-67
2021/10/06 15:23:34;;;;;;;1.67;0.50;;;;;;;;;;5055457;28;20411;-68
2021/10/06 15:26:19;;;;;;;1.83;0.60;;;;;;;;;;5072236;28;20053;-66
2021/10/06 15:29:05;;;;;;;1.67;0.38;;;;;;;;;;5076021;28;20131;-66
2021/10/06 15:31:50;;;;;;;5.55;0.60;;;;;;;;;;5075199;28;20514;-66
2021/10/06 15:34:35;;;;;;;2.38;0.50;;;;;;;;;;5090572;22;20054;-67
2021/10/06 15:37:21;;;;;;;2.45;0.50;;;;;;;;;;5055189;28;20060;-67
2021/10/06 15:40:07;;;;;;;3.88;0.63;;;;;;;;;;5037361;28;20048;-66
2021/10/06 15:42:53;;;;;;;3.05;0.68;;;;;;;;;;5051211;28;20088;-69
2021/10/06 15:45:38;;;;;;;3.30;0.50;;;;;;;;;;5046186;28;20227;-69
2021/10/06 15:48:23;;;;;;;3.55;0.82;;;;;;;;;;5044216;28;20049;-69
2021/10/06 15:51:09;;;;;;;4.45;0.73;;;;;;;;;;5044757;28;20058;-69
2021/10/06 15:53:54;;;;;;;2.67;0.68;;;;;;;;;;5046578;28;20138;-69
2021/10/06 15:56:39;;;;;;;4.95;0.60;;;;;;;;;;5050716;28;20045;-69
2021/10/06 15:59:24;;;;;;;1.48;0.52;;;;;;;;;;5036876;28;20053;-70
2021/10/06 16:02:11;;;;;;;1.45;0.40;;;;;;;;;;5036820;28;20054;-69
2021/10/06 16:04:56;;;;;;;5.45;1.70;;;;;;;;;;5021806;28;20057;-69
2021/10/06 16:07:42;;;;;;;1.45;0.63;;;;;;;;;;5053810;28;20119;-68
2021/10/06 16:10:27;;;;;;;7.05;0.80;;;;;;;;;;5074785;28;20045;-69
2021/10/06 16:13:13;;;;;;;2.17;0.50;;;;;;;;;;5074842;28;20342;-69
2021/10/06 16:15:58;;;;;;;1.00;0.40;;;;;;;;;;5074708;28;20044;-70
2021/10/06 16:18:44;;;;;;;0.63;0.30;;;;;;;;;;5034768;28;20057;-69
2021/10/06 16:21:29;;;;;;;6.22;1.05;;;;;;;;;;5034679;28;20645;-70
2021/10/06 16:24:14;;;;;;;2.15;0.52;;;;;;;;;;5034228;28;20050;-69
2021/10/06 16:27:00;;;;;;;0.88;0.60;;;;;;;;;;5043356;28;20056;-69
2021/10/06 16:29:45;;;;;;;3.78;0.93;;;;;;;;;;5074582;28;20052;-69
2021/10/06 16:32:30;;;;;;;3.70;1.58;;;;;;;;;;5074655;28;20060;-67